sensor_id;sensor_type;location;lat;lon;timestamp;P1;durP1;ratioP1;P2;durP2;ratioP2
22019;SDS011;51298;53.362;-1.518;2024-03-17T00:02:11;10.85;;;3.35;;
22019;SDS011;51298;53.362;-1.518;2024-03-17T00:05:01;8.43;;;4.18;;
22019;SDS011;51298;53.362;-1.518;2024-03-17T00:07:33;4.28;;;3.30;;
22019;SDS011;51298;53.362;-1.518;2024-03-17T00:10:20;11.82;;;4.22;;
22019;SDS011;51298;53.362;-1.518;2024-03-17T00:12:55;4.88;;;3.25;;
22019;SDS011;51298;53.362;-1.518;2024-03-17T00:15:42;5.03;;;4.40;;
22019;SDS011;51298;53.362;-1.518;2024-03-17T00:18:15;4.32;;;3.25;;
22019;SDS011;51298;53.362;-1.518;2024-03-17T00:21:02;4.43;;;3.35;;
22019;SDS011;51298;53.362;-1.518;2024-03-17T00:23:35;4.97;;;3.75;;
22019;SDS011;51298;53.362;-1.518;2024-03-17T00:26:23;6.30;;;3.80;;
22019;SDS011;51298;53.362;-1.518;2024-03-17T00:28:56;4.00;;;2.92;;
22019;SDS011;51298;53.362;-1.518;2024-03-17T00:31:42;9.43;;;4.00;;
22019;SDS011;51298;53.362;-1.518;2024-03-17T00:34:15;7.53;;;4.63;;
22019;SDS011;51298;53.362;-1.518;2024-03-17T00:37:01;14.40;;;4.43;;
22019;SDS011;51298;53.362;-1.518;2024-03-17T00:39:34;5.43;;;4.45;;
22019;SDS011;51298;53.362;-1.518;2024-03-17T00:42:22;4.30;;;3.90;;
22019;SDS011;51298;53.362;-1.518;2024-03-17T00:44:55;9.68;;;4.63;;
22019;SDS011;51298;53.362;-1.518;2024-03-17T00:47:44;6.20;;;3.65;;
22019;SDS011;51298;53.362;-1.518;2024-03-17T00:50:17;9.98;;;5.20;;
22019;SDS011;51298;53.362;-1.518;2024-03-17T00:53:04;8.40;;;5.45;;
22019;SDS011;51298;53.362;-1.518;2024-03-17T00:55:37;4.47;;;3.00;;
22019;SDS011;51298;53.362;-1.518;2024-03-17T00:58:24;6.13;;;4.25;;
22019;SDS011;51298;53.362;-1.518;2024-03-17T01:00:58;6.53;;;4.40;;
22019;SDS011;51298;53.362;-1.518;2024-03-17T01:03:44;4.97;;;3.65;;
22019;SDS011;51298;53.362;-1.518;2024-03-17T01:06:16;7.80;;;4.80;;
22019;SDS011;51298;53.362;-1.518;2024-03-17T01:09:03;5.70;;;4.13;;
22019;SDS011;51298;53.362;-1.518;2024-03-17T01:11:37;7.40;;;3.92;;
22019;SDS011;51298;53.362;-1.518;2024-03-17T01:14:24;9.63;;;5.05;;
22019;SDS011;51298;53.362;-1.518;2024-03-17T01:16:57;5.22;;;4.03;;
22019;SDS011;51298;53.362;-1.518;2024-03-17T01:19:46;7.78;;;4.45;;
22019;SDS011;51298;53.362;-1.518;2024-03-17T01:22:18;7.47;;;5.45;;
22019;SDS011;51298;53.362;-1.518;2024-03-17T01:25:05;5.97;;;5.00;;
22019;SDS011;51298;53.362;-1.518;2024-03-17T01:27:40;4.47;;;3.60;;
22019;SDS011;51298;53.362;-1.518;2024-03-17T01:30:28;10.63;;;4.15;;
22019;SDS011;51298;53.362;-1.518;2024-03-17T01:33:00;6.65;;;4.93;;
22019;SDS011;51298;53.362;-1.518;2024-03-17T01:35:49;6.78;;;3.00;;
22019;SDS011;51298;53.362;-1.518;2024-03-17T01:38:21;12.90;;;2.78;;
22019;SDS011;51298;53.362;-1.518;2024-03-17T01:41:08;8.52;;;3.92;;
22019;SDS011;51298;53.362;-1.518;2024-03-17T01:43:40;4.07;;;2.90;;
22019;SDS011;51298;53.362;-1.518;2024-03-17T01:46:28;9.85;;;4.60;;
22019;SDS011;51298;53.362;-1.518;2024-03-17T01:49:00;10.57;;;4.25;;
22019;SDS011;51298;53.362;-1.518;2024-03-17T01:51:48;8.65;;;5.93;;
22019;SDS011;51298;53.362;-1.518;2024-03-17T01:54:21;9.80;;;4.57;;
22019;SDS011;51298;53.362;-1.518;2024-03-17T01:57:08;5.85;;;3.72;;
22019;SDS011;51298;53.362;-1.518;2024-03-17T01:59:42;7.82;;;4.30;;
22019;SDS011;51298;53.362;-1.518;2024-03-17T02:02:28;7.50;;;4.78;;
22019;SDS011;51298;53.362;-1.518;2024-03-17T02:05:01;6.18;;;4.68;;
22019;SDS011;51298;53.362;-1.518;2024-03-17T02:07:50;2.72;;;2.20;;
22019;SDS011;51298;53.362;-1.518;2024-03-17T02:10:22;13.30;;;3.75;;
22019;SDS011;51298;53.362;-1.518;2024-03-17T02:13:09;6.18;;;5.40;;
22019;SDS011;51298;53.362;-1.518;2024-03-17T02:15:41;5.30;;;3.45;;
22019;SDS011;51298;53.362;-1.518;2024-03-17T02:18:29;5.30;;;3.97;;
22019;SDS011;51298;53.362;-1.518;2024-03-17T02:21:01;5.05;;;4.10;;
22019;SDS011;51298;53.362;-1.518;2024-03-17T02:23:48;12.38;;;4.60;;
22019;SDS011;51298;53.362;-1.518;2024-03-17T02:26:21;6.80;;;5.05;;
22019;SDS011;51298;53.362;-1.518;2024-03-17T02:29:08;6.07;;;4.18;;
22019;SDS011;51298;53.362;-1.518;2024-03-17T02:31:42;10.20;;;4.45;;
22019;SDS011;51298;53.362;-1.518;2024-03-17T02:34:28;6.47;;;4.10;;
22019;SDS011;51298;53.362;-1.518;2024-03-17T02:37:01;3.67;;;2.65;;
22019;SDS011;51298;53.362;-1.518;2024-03-17T02:39:49;14.75;;;4.47;;
22019;SDS011;51298;53.362;-1.518;2024-03-17T02:42:22;4.93;;;3.63;;
22019;SDS011;51298;53.362;-1.518;2024-03-17T02:45:09;7.53;;;3.65;;
22019;SDS011;51298;53.362;-1.518;2024-03-17T02:47:43;9.82;;;4.05;;
22019;SDS011;51298;53.362;-1.518;2024-03-17T02:50:29;10.25;;;5.22;;
22019;SDS011;51298;53.362;-1.518;2024-03-17T02:53:02;9.85;;;4.13;;
22019;SDS011;51298;53.362;-1.518;2024-03-17T02:55:49;7.70;;;3.33;;
22019;SDS011;51298;53.362;-1.518;2024-03-17T02:58:22;11.13;;;5.75;;
22019;SDS011;51298;53.362;-1.518;2024-03-17T03:04:15;8.85;;;4.75;;
22019;SDS011;51298;53.362;-1.518;2024-03-17T03:06:49;14.05;;;6.20;;
22019;SDS011;51298;53.362;-1.518;2024-03-17T03:09:35;7.30;;;3.30;;
22019;SDS011;51298;53.362;-1.518;2024-03-17T03:12:08;6.25;;;3.50;;
22019;SDS011;51298;53.362;-1.518;2024-03-17T03:14:56;5.25;;;3.00;;
22019;SDS011;51298;53.362;-1.518;2024-03-17T03:17:43;14.02;;;2.58;;
22019;SDS011;51298;53.362;-1.518;2024-03-17T03:20:30;5.88;;;3.00;;
22019;SDS011;51298;53.362;-1.518;2024-03-17T03:23:06;8.27;;;5.18;;
22019;SDS011;51298;53.362;-1.518;2024-03-17T03:25:56;3.35;;;3.05;;
22019;SDS011;51298;53.362;-1.518;2024-03-17T03:31:19;2.47;;;2.03;;
22019;SDS011;51298;53.362;-1.518;2024-03-17T03:33:51;2.78;;;2.40;;
22019;SDS011;51298;53.362;-1.518;2024-03-17T03:36:41;4.60;;;2.45;;
22019;SDS011;51298;53.362;-1.518;2024-03-17T03:39:15;6.72;;;2.53;;
22019;SDS011;51298;53.362;-1.518;2024-03-17T03:42:01;3.53;;;2.00;;
22019;SDS011;51298;53.362;-1.518;2024-03-17T03:44:35;8.90;;;2.05;;
22019;SDS011;51298;53.362;-1.518;2024-03-17T03:47:22;7.93;;;2.35;;
22019;SDS011;51298;53.362;-1.518;2024-03-17T03:49:56;5.82;;;4.00;;
22019;SDS011;51298;53.362;-1.518;2024-03-17T03:52:42;2.97;;;1.67;;
22019;SDS011;51298;53.362;-1.518;2024-03-17T03:55:16;3.72;;;0.98;;
22019;SDS011;51298;53.362;-1.518;2024-03-17T03:58:03;12.20;;;1.88;;
22019;SDS011;51298;53.362;-1.518;2024-03-17T04:00:37;1.55;;;1.13;;
22019;SDS011;51298;53.362;-1.518;2024-03-17T04:03:23;3.08;;;2.13;;
22019;SDS011;51298;53.362;-1.518;2024-03-17T04:06:00;4.32;;;1.95;;
22019;SDS011;51298;53.362;-1.518;2024-03-17T04:08:53;2.97;;;1.60;;
22019;SDS011;51298;53.362;-1.518;2024-03-17T04:11:30;3.83;;;1.88;;
22019;SDS011;51298;53.362;-1.518;2024-03-17T04:14:17;1.90;;;1.52;;
22019;SDS011;51298;53.362;-1.518;2024-03-17T04:16:51;4.00;;;2.40;;
22019;SDS011;51298;53.362;-1.518;2024-03-17T04:19:38;2.67;;;1.83;;
22019;SDS011;51298;53.362;-1.518;2024-03-17T04:22:12;0.88;;;0.82;;
22019;SDS011;51298;53.362;-1.518;2024-03-17T04:24:59;1.63;;;1.48;;
22019;SDS011;51298;53.362;-1.518;2024-03-17T04:27:34;1.75;;;0.82;;
22019;SDS011;51298;53.362;-1.518;2024-03-17T04:30:20;0.95;;;0.65;;
22019;SDS011;51298;53.362;-1.518;2024-03-17T04:32:53;4.13;;;1.65;;
22019;SDS011;51298;53.362;-1.518;2024-03-17T04:35:43;2.10;;;1.90;;
22019;SDS011;51298;53.362;-1.518;2024-03-17T04:38:15;1.52;;;0.70;;
22019;SDS011;51298;53.362;-1.518;2024-03-17T04:41:04;2.40;;;1.20;;
22019;SDS011;51298;53.362;-1.518;2024-03-17T04:43:38;2.10;;;1.35;;
22019;SDS011;51298;53.362;-1.518;2024-03-17T04:46:26;3.00;;;1.27;;
22019;SDS011;51298;53.362;-1.518;2024-03-17T04:48:58;1.17;;;0.93;;
22019;SDS011;51298;53.362;-1.518;2024-03-17T04:51:45;1.80;;;1.33;;
22019;SDS011;51298;53.362;-1.518;2024-03-17T04:54:37;2.63;;;1.50;;
22019;SDS011;51298;53.362;-1.518;2024-03-17T04:57:45;1.05;;;0.93;;
22019;SDS011;51298;53.362;-1.518;2024-03-17T05:00:39;1.77;;;0.98;;
22019;SDS011;51298;53.362;-1.518;2024-03-17T05:03:45;4.70;;;1.13;;
22019;SDS011;51298;53.362;-1.518;2024-03-17T05:06:38;8.85;;;1.77;;
22019;SDS011;51298;53.362;-1.518;2024-03-17T05:09:50;1.58;;;1.48;;
22019;SDS011;51298;53.362;-1.518;2024-03-17T05:12:44;0.98;;;0.90;;
22019;SDS011;51298;53.362;-1.518;2024-03-17T05:15:51;8.10;;;2.10;;
22019;SDS011;51298;53.362;-1.518;2024-03-17T05:21:54;0.82;;;0.80;;
22019;SDS011;51298;53.362;-1.518;2024-03-17T05:24:47;4.25;;;1.45;;
22019;SDS011;51298;53.362;-1.518;2024-03-17T05:27:54;2.92;;;1.25;;
22019;SDS011;51298;53.362;-1.518;2024-03-17T05:30:48;0.93;;;0.85;;
22019;SDS011;51298;53.362;-1.518;2024-03-17T05:33:57;0.32;;;0.20;;
22019;SDS011;51298;53.362;-1.518;2024-03-17T05:36:50;0.68;;;0.52;;
22019;SDS011;51298;53.362;-1.518;2024-03-17T05:39:57;0.65;;;0.43;;
22019;SDS011;51298;53.362;-1.518;2024-03-17T05:42:51;0.43;;;0.43;;
22019;SDS011;51298;53.362;-1.518;2024-03-17T05:46:00;3.13;;;0.65;;
22019;SDS011;51298;53.362;-1.518;2024-03-17T05:48:59;0.50;;;0.50;;
22019;SDS011;51298;53.362;-1.518;2024-03-17T05:52:07;1.85;;;1.23;;
22019;SDS011;51298;53.362;-1.518;2024-03-17T06:03:48;0.13;;;0.10;;
22019;SDS011;51298;53.362;-1.518;2024-03-17T06:06:38;0.85;;;0.60;;
22019;SDS011;51298;53.362;-1.518;2024-03-17T06:09:11;0.20;;;0.20;;
22019;SDS011;51298;53.362;-1.518;2024-03-17T06:12:01;0.08;;;0.08;;
22019;SDS011;51298;53.362;-1.518;2024-03-17T06:14:35;0.55;;;0.38;;
22019;SDS011;51298;53.362;-1.518;2024-03-17T06:17:21;0.10;;;0.10;;
22019;SDS011;51298;53.362;-1.518;2024-03-17T06:20:00;0.10;;;0.10;;
22019;SDS011;51298;53.362;-1.518;2024-03-17T06:22:53;0.10;;;0.10;;
22019;SDS011;51298;53.362;-1.518;2024-03-17T06:25:26;0.22;;;0.22;;
22019;SDS011;51298;53.362;-1.518;2024-03-17T06:28:15;0.52;;;0.52;;
22019;SDS011;51298;53.362;-1.518;2024-03-17T06:31:01;0.45;;;0.30;;
22019;SDS011;51298;53.362;-1.518;2024-03-17T06:33:48;1.48;;;0.20;;
22019;SDS011;51298;53.362;-1.518;2024-03-17T06:36:25;0.10;;;0.10;;
22019;SDS011;51298;53.362;-1.518;2024-03-17T06:39:20;0.20;;;0.20;;
22019;SDS011;51298;53.362;-1.518;2024-03-17T06:42:18;0.20;;;0.20;;
22019;SDS011;51298;53.362;-1.518;2024-03-17T06:44:52;0.10;;;0.10;;
22019;SDS011;51298;53.362;-1.518;2024-03-17T06:47:39;0.30;;;0.30;;
22019;SDS011;51298;53.362;-1.518;2024-03-17T06:50:13;0.20;;;0.13;;
22019;SDS011;51298;53.362;-1.518;2024-03-17T06:53:03;1.35;;;0.25;;
22019;SDS011;51298;53.362;-1.518;2024-03-17T06:55:36;0.10;;;0.10;;
22019;SDS011;51298;53.362;-1.518;2024-03-17T06:58:25;0.40;;;0.25;;
22019;SDS011;51298;53.362;-1.518;2024-03-17T07:01:00;0.47;;;0.47;;
22019;SDS011;51298;53.362;-1.518;2024-03-17T07:03:50;1.17;;;0.35;;
22019;SDS011;51298;53.362;-1.518;2024-03-17T07:06:23;0.43;;;0.30;;
22019;SDS011;51298;53.362;-1.518;2024-03-17T07:09:09;0.60;;;0.30;;
22019;SDS011;51298;53.362;-1.518;2024-03-17T07:11:42;0.30;;;0.30;;
22019;SDS011;51298;53.362;-1.518;2024-03-17T07:14:33;0.55;;;0.55;;
22019;SDS011;51298;53.362;-1.518;2024-03-17T07:17:06;0.00;;;0.00;;
22019;SDS011;51298;53.362;-1.518;2024-03-17T07:19:52;0.20;;;0.20;;
22019;SDS011;51298;53.362;-1.518;2024-03-17T07:22:25;0.65;;;0.65;;
22019;SDS011;51298;53.362;-1.518;2024-03-17T07:25:11;0.20;;;0.20;;
22019;SDS011;51298;53.362;-1.518;2024-03-17T07:27:47;0.22;;;0.22;;
22019;SDS011;51298;53.362;-1.518;2024-03-17T07:30:33;0.52;;;0.52;;
22019;SDS011;51298;53.362;-1.518;2024-03-17T07:33:06;0.13;;;0.13;;
22019;SDS011;51298;53.362;-1.518;2024-03-17T07:35:56;5.20;;;0.40;;
22019;SDS011;51298;53.362;-1.518;2024-03-17T07:38:32;0.25;;;0.20;;
22019;SDS011;51298;53.362;-1.518;2024-03-17T07:41:18;0.03;;;0.03;;
22019;SDS011;51298;53.362;-1.518;2024-03-17T07:44:14;0.10;;;0.10;;
22019;SDS011;51298;53.362;-1.518;2024-03-17T07:47:03;0.43;;;0.30;;
22019;SDS011;51298;53.362;-1.518;2024-03-17T07:49:36;1.70;;;1.00;;
22019;SDS011;51298;53.362;-1.518;2024-03-17T07:52:25;0.20;;;0.20;;
22019;SDS011;51298;53.362;-1.518;2024-03-17T07:55:01;0.20;;;0.20;;
22019;SDS011;51298;53.362;-1.518;2024-03-17T07:57:48;2.20;;;0.45;;
22019;SDS011;51298;53.362;-1.518;2024-03-17T08:00:34;0.20;;;0.20;;
22019;SDS011;51298;53.362;-1.518;2024-03-17T08:03:20;0.30;;;0.30;;
22019;SDS011;51298;53.362;-1.518;2024-03-17T08:06:02;0.20;;;0.20;;
22019;SDS011;51298;53.362;-1.518;2024-03-17T08:11:26;2.92;;;1.08;;
22019;SDS011;51298;53.362;-1.518;2024-03-17T08:14:13;0.32;;;0.32;;
22019;SDS011;51298;53.362;-1.518;2024-03-17T08:16:48;0.47;;;0.47;;
22019;SDS011;51298;53.362;-1.518;2024-03-17T08:19:37;0.52;;;0.30;;
22019;SDS011;51298;53.362;-1.518;2024-03-17T08:22:11;0.40;;;0.40;;
22019;SDS011;51298;53.362;-1.518;2024-03-17T08:24:57;0.20;;;0.20;;
22019;SDS011;51298;53.362;-1.518;2024-03-17T08:27:33;0.40;;;0.40;;
22019;SDS011;51298;53.362;-1.518;2024-03-17T08:30:19;0.65;;;0.38;;
22019;SDS011;51298;53.362;-1.518;2024-03-17T08:32:52;0.10;;;0.10;;
22019;SDS011;51298;53.362;-1.518;2024-03-17T08:35:38;0.20;;;0.20;;
22019;SDS011;51298;53.362;-1.518;2024-03-17T08:38:11;0.10;;;0.10;;
22019;SDS011;51298;53.362;-1.518;2024-03-17T08:41:03;0.40;;;0.40;;
22019;SDS011;51298;53.362;-1.518;2024-03-17T08:43:37;0.10;;;0.10;;
22019;SDS011;51298;53.362;-1.518;2024-03-17T08:46:22;0.20;;;0.20;;
22019;SDS011;51298;53.362;-1.518;2024-03-17T08:48:55;0.30;;;0.30;;
22019;SDS011;51298;53.362;-1.518;2024-03-17T08:51:40;0.10;;;0.10;;
22019;SDS011;51298;53.362;-1.518;2024-03-17T08:54:13;0.30;;;0.20;;
22019;SDS011;51298;53.362;-1.518;2024-03-17T08:57:00;0.20;;;0.20;;
22019;SDS011;51298;53.362;-1.518;2024-03-17T08:59:34;0.10;;;0.10;;
22019;SDS011;51298;53.362;-1.518;2024-03-17T09:02:20;0.10;;;0.10;;
22019;SDS011;51298;53.362;-1.518;2024-03-17T09:04:53;0.17;;;0.10;;
22019;SDS011;51298;53.362;-1.518;2024-03-17T09:07:43;1.85;;;0.20;;
22019;SDS011;51298;53.362;-1.518;2024-03-17T09:10:16;0.30;;;0.30;;
22019;SDS011;51298;53.362;-1.518;2024-03-17T09:13:04;0.20;;;0.20;;
22019;SDS011;51298;53.362;-1.518;2024-03-17T09:15:37;4.72;;;0.52;;
22019;SDS011;51298;53.362;-1.518;2024-03-17T09:18:24;0.05;;;0.00;;
22019;SDS011;51298;53.362;-1.518;2024-03-17T09:21:05;0.20;;;0.20;;
22019;SDS011;51298;53.362;-1.518;2024-03-17T09:23:52;0.45;;;0.45;;
22019;SDS011;51298;53.362;-1.518;2024-03-17T09:26:26;0.20;;;0.20;;
22019;SDS011;51298;53.362;-1.518;2024-03-17T09:29:19;0.63;;;0.50;;
22019;SDS011;51298;53.362;-1.518;2024-03-17T09:31:52;0.63;;;0.40;;
22019;SDS011;51298;53.362;-1.518;2024-03-17T09:34:38;0.98;;;0.73;;
22019;SDS011;51298;53.362;-1.518;2024-03-17T09:37:11;0.55;;;0.55;;
22019;SDS011;51298;53.362;-1.518;2024-03-17T09:39:57;1.25;;;1.15;;
22019;SDS011;51298;53.362;-1.518;2024-03-17T09:42:33;0.50;;;0.47;;
22019;SDS011;51298;53.362;-1.518;2024-03-17T09:45:21;0.35;;;0.35;;
22019;SDS011;51298;53.362;-1.518;2024-03-17T09:47:56;0.68;;;0.68;;
22019;SDS011;51298;53.362;-1.518;2024-03-17T09:50:41;1.58;;;0.73;;
22019;SDS011;51298;53.362;-1.518;2024-03-17T09:53:15;0.55;;;0.35;;
22019;SDS011;51298;53.362;-1.518;2024-03-17T09:56:09;0.77;;;0.60;;
22019;SDS011;51298;53.362;-1.518;2024-03-17T09:58:43;3.70;;;0.70;;
22019;SDS011;51298;53.362;-1.518;2024-03-17T10:01:30;0.77;;;0.77;;
22019;SDS011;51298;53.362;-1.518;2024-03-17T10:04:03;0.70;;;0.70;;
22019;SDS011;51298;53.362;-1.518;2024-03-17T10:06:49;0.73;;;0.73;;
22019;SDS011;51298;53.362;-1.518;2024-03-17T10:09:23;0.75;;;0.60;;
22019;SDS011;51298;53.362;-1.518;2024-03-17T10:12:26;0.30;;;0.30;;
22019;SDS011;51298;53.362;-1.518;2024-03-17T10:15:01;0.20;;;0.20;;
22019;SDS011;51298;53.362;-1.518;2024-03-17T10:17:46;0.57;;;0.45;;
22019;SDS011;51298;53.362;-1.518;2024-03-17T10:20:23;0.88;;;0.45;;
22019;SDS011;51298;53.362;-1.518;2024-03-17T10:23:10;0.38;;;0.20;;
22019;SDS011;51298;53.362;-1.518;2024-03-17T10:25:48;0.17;;;0.17;;
22019;SDS011;51298;53.362;-1.518;2024-03-17T10:28:39;0.25;;;0.17;;
22019;SDS011;51298;53.362;-1.518;2024-03-17T10:31:16;0.40;;;0.40;;
22019;SDS011;51298;53.362;-1.518;2024-03-17T10:34:02;0.38;;;0.38;;
22019;SDS011;51298;53.362;-1.518;2024-03-17T10:36:35;0.30;;;0.30;;
22019;SDS011;51298;53.362;-1.518;2024-03-17T10:39:25;0.40;;;0.40;;
22019;SDS011;51298;53.362;-1.518;2024-03-17T10:42:02;0.15;;;0.15;;
22019;SDS011;51298;53.362;-1.518;2024-03-17T10:44:49;0.77;;;0.77;;
22019;SDS011;51298;53.362;-1.518;2024-03-17T10:47:24;0.20;;;0.20;;
22019;SDS011;51298;53.362;-1.518;2024-03-17T10:50:17;0.10;;;0.10;;
22019;SDS011;51298;53.362;-1.518;2024-03-17T10:52:55;0.00;;;0.00;;
22019;SDS011;51298;53.362;-1.518;2024-03-17T10:55:48;0.17;;;0.17;;
22019;SDS011;51298;53.362;-1.518;2024-03-17T10:58:35;0.20;;;0.20;;
22019;SDS011;51298;53.362;-1.518;2024-03-17T11:01:26;0.20;;;0.20;;
22019;SDS011;51298;53.362;-1.518;2024-03-17T11:04:04;0.38;;;0.38;;
22019;SDS011;51298;53.362;-1.518;2024-03-17T11:06:50;0.13;;;0.13;;
22019;SDS011;51298;53.362;-1.518;2024-03-17T11:09:23;1.02;;;0.35;;
22019;SDS011;51298;53.362;-1.518;2024-03-17T11:20:55;0.40;;;0.28;;
22019;SDS011;51298;53.362;-1.518;2024-03-17T11:23:55;0.30;;;0.30;;
22019;SDS011;51298;53.362;-1.518;2024-03-17T11:26:37;11.40;;;0.70;;
22019;SDS011;51298;53.362;-1.518;2024-03-17T11:29:26;0.15;;;0.15;;
22019;SDS011;51298;53.362;-1.518;2024-03-17T11:32:24;0.20;;;0.20;;
22019;SDS011;51298;53.362;-1.518;2024-03-17T11:35:14;0.30;;;0.30;;
22019;SDS011;51298;53.362;-1.518;2024-03-17T11:37:48;0.30;;;0.10;;
22019;SDS011;51298;53.362;-1.518;2024-03-17T11:40:33;3.13;;;1.90;;
22019;SDS011;51298;53.362;-1.518;2024-03-17T11:43:06;0.30;;;0.30;;
22019;SDS011;51298;53.362;-1.518;2024-03-17T11:45:55;0.30;;;0.30;;
22019;SDS011;51298;53.362;-1.518;2024-03-17T11:48:29;3.30;;;0.20;;
22019;SDS011;51298;53.362;-1.518;2024-03-17T11:51:16;0.35;;;0.22;;
22019;SDS011;51298;53.362;-1.518;2024-03-17T11:53:57;0.65;;;0.25;;
22019;SDS011;51298;53.362;-1.518;2024-03-17T11:56:45;0.40;;;0.40;;
22019;SDS011;51298;53.362;-1.518;2024-03-17T11:59:21;1.70;;;0.73;;
22019;SDS011;51298;53.362;-1.518;2024-03-17T12:05:03;0.98;;;0.88;;
22019;SDS011;51298;53.362;-1.518;2024-03-17T12:07:50;0.43;;;0.30;;
22019;SDS011;51298;53.362;-1.518;2024-03-17T12:10:26;0.05;;;0.05;;
22019;SDS011;51298;53.362;-1.518;2024-03-17T12:13:17;0.30;;;0.20;;
22019;SDS011;51298;53.362;-1.518;2024-03-17T12:16:09;0.10;;;0.10;;
22019;SDS011;51298;53.362;-1.518;2024-03-17T12:19:06;0.10;;;0.10;;
22019;SDS011;51298;53.362;-1.518;2024-03-17T12:21:41;0.10;;;0.10;;
22019;SDS011;51298;53.362;-1.518;2024-03-17T12:24:34;0.03;;;0.03;;
22019;SDS011;51298;53.362;-1.518;2024-03-17T12:27:09;0.20;;;0.20;;
22019;SDS011;51298;53.362;-1.518;2024-03-17T12:30:08;0.10;;;0.10;;
22019;SDS011;51298;53.362;-1.518;2024-03-17T12:32:42;0.20;;;0.10;;
22019;SDS011;51298;53.362;-1.518;2024-03-17T12:35:31;0.47;;;0.20;;
22019;SDS011;51298;53.362;-1.518;2024-03-17T12:38:19;0.20;;;0.20;;
22019;SDS011;51298;53.362;-1.518;2024-03-17T12:41:18;0.00;;;0.00;;
22019;SDS011;51298;53.362;-1.518;2024-03-17T12:43:53;0.63;;;0.30;;
22019;SDS011;51298;53.362;-1.518;2024-03-17T12:46:39;0.30;;;0.30;;
22019;SDS011;51298;53.362;-1.518;2024-03-17T12:49:12;0.28;;;0.20;;
22019;SDS011;51298;53.362;-1.518;2024-03-17T12:52:02;0.40;;;0.20;;
22019;SDS011;51298;53.362;-1.518;2024-03-17T12:54:35;0.57;;;0.30;;
22019;SDS011;51298;53.362;-1.518;2024-03-17T12:57:25;0.10;;;0.10;;
22019;SDS011;51298;53.362;-1.518;2024-03-17T13:00:17;1.38;;;0.30;;
22019;SDS011;51298;53.362;-1.518;2024-03-17T13:03:21;0.10;;;0.10;;
22019;SDS011;51298;53.362;-1.518;2024-03-17T13:05:56;0.10;;;0.10;;
22019;SDS011;51298;53.362;-1.518;2024-03-17T13:08:41;0.32;;;0.32;;
22019;SDS011;51298;53.362;-1.518;2024-03-17T13:11:14;0.40;;;0.40;;
22019;SDS011;51298;53.362;-1.518;2024-03-17T13:14:00;0.20;;;0.17;;
22019;SDS011;51298;53.362;-1.518;2024-03-17T13:16:33;0.05;;;0.05;;
22019;SDS011;51298;53.362;-1.518;2024-03-17T13:19:19;0.20;;;0.20;;
22019;SDS011;51298;53.362;-1.518;2024-03-17T13:21:52;0.15;;;0.10;;
22019;SDS011;51298;53.362;-1.518;2024-03-17T13:24:40;0.25;;;0.25;;
22019;SDS011;51298;53.362;-1.518;2024-03-17T13:27:13;0.10;;;0.10;;
22019;SDS011;51298;53.362;-1.518;2024-03-17T13:29:59;0.17;;;0.17;;
22019;SDS011;51298;53.362;-1.518;2024-03-17T13:32:32;0.13;;;0.10;;
22019;SDS011;51298;53.362;-1.518;2024-03-17T13:35:19;0.45;;;0.20;;
22019;SDS011;51298;53.362;-1.518;2024-03-17T13:37:52;0.13;;;0.13;;
22019;SDS011;51298;53.362;-1.518;2024-03-17T13:40:39;0.20;;;0.13;;
22019;SDS011;51298;53.362;-1.518;2024-03-17T13:43:14;0.13;;;0.13;;
22019;SDS011;51298;53.362;-1.518;2024-03-17T13:46:01;0.20;;;0.20;;
22019;SDS011;51298;53.362;-1.518;2024-03-17T13:48:36;0.10;;;0.05;;
22019;SDS011;51298;53.362;-1.518;2024-03-17T13:51:21;0.05;;;0.05;;
22019;SDS011;51298;53.362;-1.518;2024-03-17T13:53:56;0.10;;;0.10;;
22019;SDS011;51298;53.362;-1.518;2024-03-17T13:56:42;2.17;;;0.52;;
22019;SDS011;51298;53.362;-1.518;2024-03-17T13:59:19;0.20;;;0.20;;
22019;SDS011;51298;53.362;-1.518;2024-03-17T14:02:12;0.00;;;0.00;;
22019;SDS011;51298;53.362;-1.518;2024-03-17T14:04:46;0.10;;;0.10;;
22019;SDS011;51298;53.362;-1.518;2024-03-17T14:07:31;0.10;;;0.10;;
22019;SDS011;51298;53.362;-1.518;2024-03-17T14:10:04;0.10;;;0.10;;
22019;SDS011;51298;53.362;-1.518;2024-03-17T14:12:51;0.20;;;0.20;;
22019;SDS011;51298;53.362;-1.518;2024-03-17T14:15:25;2.40;;;0.32;;
22019;SDS011;51298;53.362;-1.518;2024-03-17T14:18:11;0.20;;;0.20;;
22019;SDS011;51298;53.362;-1.518;2024-03-17T14:20:44;0.10;;;0.10;;
22019;SDS011;51298;53.362;-1.518;2024-03-17T14:23:30;0.10;;;0.10;;
22019;SDS011;51298;53.362;-1.518;2024-03-17T14:26:03;0.03;;;0.03;;
22019;SDS011;51298;53.362;-1.518;2024-03-17T14:28:49;3.80;;;0.30;;
22019;SDS011;51298;53.362;-1.518;2024-03-17T14:31:26;0.20;;;0.20;;
22019;SDS011;51298;53.362;-1.518;2024-03-17T14:34:17;0.10;;;0.10;;
22019;SDS011;51298;53.362;-1.518;2024-03-17T14:36:50;0.20;;;0.20;;
22019;SDS011;51298;53.362;-1.518;2024-03-17T14:39:36;0.10;;;0.10;;
22019;SDS011;51298;53.362;-1.518;2024-03-17T14:42:09;0.25;;;0.10;;
22019;SDS011;51298;53.362;-1.518;2024-03-17T14:44:55;0.20;;;0.20;;
22019;SDS011;51298;53.362;-1.518;2024-03-17T14:47:30;0.30;;;0.20;;
22019;SDS011;51298;53.362;-1.518;2024-03-17T14:50:17;0.28;;;0.15;;
22019;SDS011;51298;53.362;-1.518;2024-03-17T14:53:05;0.30;;;0.30;;
22019;SDS011;51298;53.362;-1.518;2024-03-17T14:55:38;0.20;;;0.10;;
22019;SDS011;51298;53.362;-1.518;2024-03-17T14:58:25;0.20;;;0.20;;
22019;SDS011;51298;53.362;-1.518;2024-03-17T15:01:01;0.10;;;0.10;;
22019;SDS011;51298;53.362;-1.518;2024-03-17T15:03:47;0.20;;;0.20;;
22019;SDS011;51298;53.362;-1.518;2024-03-17T15:06:20;0.50;;;0.32;;
22019;SDS011;51298;53.362;-1.518;2024-03-17T15:09:09;0.98;;;0.75;;
22019;SDS011;51298;53.362;-1.518;2024-03-17T15:11:42;0.00;;;0.00;;
22019;SDS011;51298;53.362;-1.518;2024-03-17T15:14:27;0.52;;;0.20;;
22019;SDS011;51298;53.362;-1.518;2024-03-17T15:17:00;0.25;;;0.25;;
22019;SDS011;51298;53.362;-1.518;2024-03-17T15:19:47;0.10;;;0.10;;
22019;SDS011;51298;53.362;-1.518;2024-03-17T15:22:20;0.30;;;0.30;;
22019;SDS011;51298;53.362;-1.518;2024-03-17T15:25:06;0.57;;;0.30;;
22019;SDS011;51298;53.362;-1.518;2024-03-17T15:27:42;0.10;;;0.10;;
22019;SDS011;51298;53.362;-1.518;2024-03-17T15:30:31;0.90;;;0.63;;
22019;SDS011;51298;53.362;-1.518;2024-03-17T15:33:04;2.28;;;0.30;;
22019;SDS011;51298;53.362;-1.518;2024-03-17T15:35:50;0.03;;;0.03;;
22019;SDS011;51298;53.362;-1.518;2024-03-17T15:38:25;0.00;;;0.00;;
22019;SDS011;51298;53.362;-1.518;2024-03-17T15:41:15;0.10;;;0.10;;
22019;SDS011;51298;53.362;-1.518;2024-03-17T15:43:49;1.45;;;0.30;;
22019;SDS011;51298;53.362;-1.518;2024-03-17T15:46:35;1.15;;;0.35;;
22019;SDS011;51298;53.362;-1.518;2024-03-17T15:49:09;0.70;;;0.20;;
22019;SDS011;51298;53.362;-1.518;2024-03-17T15:51:55;8.05;;;0.55;;
22019;SDS011;51298;53.362;-1.518;2024-03-17T15:54:31;0.93;;;0.35;;
22019;SDS011;51298;53.362;-1.518;2024-03-17T15:57:20;0.10;;;0.10;;
22019;SDS011;51298;53.362;-1.518;2024-03-17T15:59:55;0.35;;;0.30;;
22019;SDS011;51298;53.362;-1.518;2024-03-17T16:02:44;1.27;;;0.75;;
22019;SDS011;51298;53.362;-1.518;2024-03-17T16:05:22;0.40;;;0.40;;
22019;SDS011;51298;53.362;-1.518;2024-03-17T16:08:08;0.15;;;0.13;;
22019;SDS011;51298;53.362;-1.518;2024-03-17T16:10:49;2.20;;;0.20;;
22019;SDS011;51298;53.362;-1.518;2024-03-17T16:13:37;0.20;;;0.13;;
22019;SDS011;51298;53.362;-1.518;2024-03-17T16:16:16;0.38;;;0.30;;
22019;SDS011;51298;53.362;-1.518;2024-03-17T16:21:43;0.32;;;0.30;;
22019;SDS011;51298;53.362;-1.518;2024-03-17T16:24:32;0.40;;;0.30;;
22019;SDS011;51298;53.362;-1.518;2024-03-17T16:27:07;0.10;;;0.10;;
22019;SDS011;51298;53.362;-1.518;2024-03-17T16:29:54;1.50;;;1.30;;
22019;SDS011;51298;53.362;-1.518;2024-03-17T16:32:30;0.17;;;0.17;;
22019;SDS011;51298;53.362;-1.518;2024-03-17T16:35:16;0.20;;;0.20;;
22019;SDS011;51298;53.362;-1.518;2024-03-17T16:37:50;3.20;;;0.63;;
22019;SDS011;51298;53.362;-1.518;2024-03-17T16:40:37;0.25;;;0.25;;